Ashland, SC

6:32 PM EST on December 28, 2014 (GMT -0500)
McBee,SC | Change Station
CLOSE
Current Station
Personal Weather Station
Location: McBee, SC
Elevation: 210 ft
Nearby Weather Stations

Elev 210 ft 34.37 °N, 80.28 °W | Updated 13 minutes ago

Overcast
Overcast
61.8 °F
Feels Like 61.8 °F
N
0.0
Wind Variable Wind from SW

Today
High -- | Low -- °F
--% Chance of Precip.
Yesterday
High -- | Low -- °F
Precip. -- in
7:26 AM 5:19 PM
First Quarter, 52% visible
Pressure 30.06 in
Visibility 10.0 miles
Clouds Overcast 1400 ft
Dew Point 61 °F
Humidity 96%
Rainfall 0.23 in
Snow Depth Not available.
UV 0 out of 12
Pollen 2.20 out of 12
Air Quality Not available.
Flu Activity Not available.
METAR KHVS 282315Z AUTO 26003KT 10SM OVC014 17/17 A3006 RMK AO2

More Conditions Fewer Conditions

Pressure 30.06 in
Visibility 10.0 miles
Clouds Overcast 1400 ft
Dew Point 61 °F
Humidity 96%
Rainfall 0.23 in
Snow Depth Not available.
UV 0 out of 12
Pollen 2.20 out of 12
Air Quality Not available.
Flu Activity Not available.
METAR KHVS 282315Z AUTO 26003KT 10SM OVC014 17/17 A3006 RMK AO2

More Conditions Fewer Conditions

10-Day Weather Forecast

Almanac

Astronomy

Dec. 28, 2014 Rise Set
Actual Time
Civil Twilight
Nautical Twilight
Astronomical Twilight
Moon
Length of Visible Light
Length of Day
Tomorrow will be .
, % of the Moon is Illuminated

Today's Extremes

State Highs State Lows

Community

WunderPhotos

Upload Photos

1,781,460 photos uploaded!

WunderBlogs® & News

Nearby

Air Quality

  Air Quality AQ Index Pollutant
Not available.

Snow Depth

Station Depth Elevation

Earthquake Activity

City Distance Mag. Time & Date
Minimum magnitude displayed is 2.5.

Coastal Water Temperatures

Place Temperature

Nearby Weather Stations